sensor_id;sensor_type;location;lat;lon;timestamp;P1;durP1;ratioP1;P2;durP2;ratioP2
68284;SDS011;55114;52.052;5.238;2023-06-26T00:01:32;11.53;;;8.30;;
68284;SDS011;55114;52.052;5.238;2023-06-26T00:04:04;12.57;;;8.80;;
68284;SDS011;55114;52.052;5.238;2023-06-26T00:06:34;9.70;;;8.18;;
68284;SDS011;55114;52.052;5.238;2023-06-26T00:09:02;10.68;;;8.52;;
68284;SDS011;55114;52.052;5.238;2023-06-26T00:11:29;11.40;;;8.13;;
68284;SDS011;55114;52.052;5.238;2023-06-26T00:14:00;11.27;;;8.20;;
68284;SDS011;55114;52.052;5.238;2023-06-26T00:16:30;14.38;;;9.65;;
68284;SDS011;55114;52.052;5.238;2023-06-26T00:19:01;10.57;;;8.18;;
68284;SDS011;55114;52.052;5.238;2023-06-26T00:21:29;11.00;;;8.48;;
68284;SDS011;55114;52.052;5.238;2023-06-26T00:23:56;10.32;;;7.95;;
68284;SDS011;55114;52.052;5.238;2023-06-26T00:26:24;10.87;;;8.30;;
68284;SDS011;55114;52.052;5.238;2023-06-26T00:28:51;10.35;;;8.38;;
68284;SDS011;55114;52.052;5.238;2023-06-26T00:31:23;10.02;;;8.02;;
68284;SDS011;55114;52.052;5.238;2023-06-26T00:33:50;9.55;;;7.82;;
68284;SDS011;55114;52.052;5.238;2023-06-26T00:36:18;11.10;;;8.40;;
68284;SDS011;55114;52.052;5.238;2023-06-26T00:38:46;12.17;;;7.93;;
68284;SDS011;55114;52.052;5.238;2023-06-26T00:41:13;11.52;;;8.13;;
68284;SDS011;55114;52.052;5.238;2023-06-26T00:43:40;11.20;;;8.82;;
68284;SDS011;55114;52.052;5.238;2023-06-26T00:46:10;10.38;;;7.93;;
68284;SDS011;55114;52.052;5.238;2023-06-26T00:48:39;11.77;;;8.38;;
68284;SDS011;55114;52.052;5.238;2023-06-26T00:51:11;10.53;;;8.33;;
68284;SDS011;55114;52.052;5.238;2023-06-26T00:53:38;11.10;;;8.20;;
68284;SDS011;55114;52.052;5.238;2023-06-26T00:56:05;10.75;;;8.07;;
68284;SDS011;55114;52.052;5.238;2023-06-26T00:58:33;11.18;;;8.65;;
68284;SDS011;55114;52.052;5.238;2023-06-26T01:01:00;11.68;;;7.78;;
68284;SDS011;55114;52.052;5.238;2023-06-26T01:03:29;9.10;;;7.10;;
68284;SDS011;55114;52.052;5.238;2023-06-26T01:05:56;9.50;;;6.70;;
68284;SDS011;55114;52.052;5.238;2023-06-26T01:08:24;8.65;;;6.25;;
68284;SDS011;55114;52.052;5.238;2023-06-26T01:10:52;8.45;;;6.18;;
68284;SDS011;55114;52.052;5.238;2023-06-26T01:13:19;8.35;;;5.55;;
68284;SDS011;55114;52.052;5.238;2023-06-26T01:15:47;9.67;;;5.60;;
68284;SDS011;55114;52.052;5.238;2023-06-26T01:18:14;8.68;;;5.80;;
68284;SDS011;55114;52.052;5.238;2023-06-26T01:20:42;9.75;;;6.15;;
68284;SDS011;55114;52.052;5.238;2023-06-26T01:23:24;7.68;;;5.60;;
68284;SDS011;55114;52.052;5.238;2023-06-26T01:28:27;8.47;;;5.40;;
68284;SDS011;55114;52.052;5.238;2023-06-26T01:30:55;9.77;;;6.03;;
68284;SDS011;55114;52.052;5.238;2023-06-26T01:33:22;9.77;;;5.70;;
68284;SDS011;55114;52.052;5.238;2023-06-26T01:35:50;8.75;;;5.05;;
68284;SDS011;55114;52.052;5.238;2023-06-26T01:38:19;7.70;;;4.80;;
68284;SDS011;55114;52.052;5.238;2023-06-26T01:40:46;12.17;;;4.80;;
68284;SDS011;55114;52.052;5.238;2023-06-26T01:43:15;10.45;;;4.70;;
68284;SDS011;55114;52.052;5.238;2023-06-26T01:45:46;8.65;;;4.80;;
68284;SDS011;55114;52.052;5.238;2023-06-26T01:48:15;8.48;;;4.45;;
68284;SDS011;55114;52.052;5.238;2023-06-26T01:50:43;8.30;;;4.43;;
68284;SDS011;55114;52.052;5.238;2023-06-26T01:53:11;7.97;;;4.50;;
68284;SDS011;55114;52.052;5.238;2023-06-26T01:58:09;7.18;;;4.47;;
68284;SDS011;55114;52.052;5.238;2023-06-26T02:00:36;9.57;;;4.40;;
68284;SDS011;55114;52.052;5.238;2023-06-26T02:03:04;10.68;;;4.22;;
68284;SDS011;55114;52.052;5.238;2023-06-26T02:05:32;9.30;;;4.10;;
68284;SDS011;55114;52.052;5.238;2023-06-26T02:08:00;10.85;;;4.25;;
68284;SDS011;55114;52.052;5.238;2023-06-26T02:10:29;8.55;;;3.88;;
68284;SDS011;55114;52.052;5.238;2023-06-26T02:12:56;9.02;;;3.70;;
68284;SDS011;55114;52.052;5.238;2023-06-26T02:15:25;10.18;;;3.75;;
68284;SDS011;55114;52.052;5.238;2023-06-26T02:17:53;8.47;;;3.90;;
68284;SDS011;55114;52.052;5.238;2023-06-26T02:20:20;9.93;;;4.00;;
68284;SDS011;55114;52.052;5.238;2023-06-26T02:22:47;10.27;;;4.03;;
68284;SDS011;55114;52.052;5.238;2023-06-26T02:25:14;10.65;;;3.60;;
68284;SDS011;55114;52.052;5.238;2023-06-26T02:27:42;7.93;;;3.53;;
68284;SDS011;55114;52.052;5.238;2023-06-26T02:30:10;11.33;;;3.80;;
68284;SDS011;55114;52.052;5.238;2023-06-26T02:32:37;9.00;;;3.95;;
68284;SDS011;55114;52.052;5.238;2023-06-26T02:35:05;9.05;;;3.60;;
68284;SDS011;55114;52.052;5.238;2023-06-26T02:37:32;8.05;;;3.65;;
68284;SDS011;55114;52.052;5.238;2023-06-26T02:39:59;8.25;;;3.75;;
68284;SDS011;55114;52.052;5.238;2023-06-26T02:42:26;7.83;;;3.90;;
68284;SDS011;55114;52.052;5.238;2023-06-26T02:44:53;8.63;;;4.10;;
68284;SDS011;55114;52.052;5.238;2023-06-26T02:47:21;8.50;;;3.80;;
68284;SDS011;55114;52.052;5.238;2023-06-26T02:49:48;9.27;;;3.65;;
68284;SDS011;55114;52.052;5.238;2023-06-26T02:52:15;10.93;;;4.20;;
68284;SDS011;55114;52.052;5.238;2023-06-26T02:54:42;9.27;;;3.90;;
68284;SDS011;55114;52.052;5.238;2023-06-26T02:57:09;8.70;;;3.90;;
68284;SDS011;55114;52.052;5.238;2023-06-26T02:59:37;8.75;;;3.75;;
68284;SDS011;55114;52.052;5.238;2023-06-26T03:02:05;9.32;;;3.83;;
68284;SDS011;55114;52.052;5.238;2023-06-26T03:04:32;12.73;;;3.75;;
68284;SDS011;55114;52.052;5.238;2023-06-26T03:07:03;9.87;;;4.07;;
68284;SDS011;55114;52.052;5.238;2023-06-26T03:09:30;10.23;;;4.10;;
68284;SDS011;55114;52.052;5.238;2023-06-26T03:11:57;9.85;;;4.45;;
68284;SDS011;55114;52.052;5.238;2023-06-26T03:14:25;12.45;;;4.28;;
68284;SDS011;55114;52.052;5.238;2023-06-26T03:16:52;11.77;;;3.90;;
68284;SDS011;55114;52.052;5.238;2023-06-26T03:19:24;10.43;;;4.13;;
68284;SDS011;55114;52.052;5.238;2023-06-26T03:21:51;10.48;;;3.90;;
68284;SDS011;55114;52.052;5.238;2023-06-26T03:24:18;10.27;;;4.03;;
68284;SDS011;55114;52.052;5.238;2023-06-26T03:26:45;10.90;;;3.97;;
68284;SDS011;55114;52.052;5.238;2023-06-26T03:29:13;10.13;;;4.20;;
68284;SDS011;55114;52.052;5.238;2023-06-26T03:31:40;11.03;;;4.53;;
68284;SDS011;55114;52.052;5.238;2023-06-26T03:34:07;10.35;;;4.13;;
68284;SDS011;55114;52.052;5.238;2023-06-26T03:36:34;11.38;;;4.38;;
68284;SDS011;55114;52.052;5.238;2023-06-26T03:39:01;10.65;;;3.97;;
68284;SDS011;55114;52.052;5.238;2023-06-26T03:41:30;12.23;;;4.35;;
68284;SDS011;55114;52.052;5.238;2023-06-26T03:43:57;11.03;;;4.33;;
68284;SDS011;55114;52.052;5.238;2023-06-26T03:46:26;13.57;;;4.00;;
68284;SDS011;55114;52.052;5.238;2023-06-26T03:48:53;16.92;;;4.32;;
68284;SDS011;55114;52.052;5.238;2023-06-26T03:51:21;12.55;;;4.70;;
68284;SDS011;55114;52.052;5.238;2023-06-26T03:53:48;9.50;;;4.00;;
68284;SDS011;55114;52.052;5.238;2023-06-26T03:56:15;8.33;;;3.60;;
68284;SDS011;55114;52.052;5.238;2023-06-26T03:58:42;10.25;;;4.25;;
68284;SDS011;55114;52.052;5.238;2023-06-26T04:01:09;11.45;;;4.10;;
68284;SDS011;55114;52.052;5.238;2023-06-26T04:03:37;13.95;;;4.88;;
68284;SDS011;55114;52.052;5.238;2023-06-26T04:06:04;9.68;;;4.00;;
68284;SDS011;55114;52.052;5.238;2023-06-26T04:08:32;10.10;;;3.87;;
68284;SDS011;55114;52.052;5.238;2023-06-26T04:10:59;11.38;;;4.13;;
68284;SDS011;55114;52.052;5.238;2023-06-26T04:13:26;12.85;;;3.65;;
68284;SDS011;55114;52.052;5.238;2023-06-26T04:15:53;10.75;;;3.80;;
68284;SDS011;55114;52.052;5.238;2023-06-26T04:18:20;10.05;;;4.07;;
68284;SDS011;55114;52.052;5.238;2023-06-26T04:21:04;15.47;;;3.90;;
68284;SDS011;55114;52.052;5.238;2023-06-26T04:23:33;9.65;;;3.40;;
68284;SDS011;55114;52.052;5.238;2023-06-26T04:26:00;10.88;;;4.15;;
68284;SDS011;55114;52.052;5.238;2023-06-26T04:28:28;10.52;;;3.90;;
68284;SDS011;55114;52.052;5.238;2023-06-26T04:30:56;11.27;;;4.00;;
68284;SDS011;55114;52.052;5.238;2023-06-26T04:33:23;9.57;;;3.73;;
68284;SDS011;55114;52.052;5.238;2023-06-26T04:35:52;11.70;;;3.50;;
68284;SDS011;55114;52.052;5.238;2023-06-26T04:38:20;10.65;;;3.53;;
68284;SDS011;55114;52.052;5.238;2023-06-26T04:40:48;15.18;;;3.88;;
68284;SDS011;55114;52.052;5.238;2023-06-26T04:43:15;8.90;;;4.00;;
68284;SDS011;55114;52.052;5.238;2023-06-26T04:45:42;8.87;;;3.57;;
68284;SDS011;55114;52.052;5.238;2023-06-26T04:48:10;9.52;;;3.53;;
68284;SDS011;55114;52.052;5.238;2023-06-26T04:50:37;8.63;;;3.60;;
68284;SDS011;55114;52.052;5.238;2023-06-26T04:53:05;10.50;;;3.65;;
68284;SDS011;55114;52.052;5.238;2023-06-26T04:55:32;15.30;;;3.35;;
68284;SDS011;55114;52.052;5.238;2023-06-26T04:57:59;10.63;;;3.20;;
68284;SDS011;55114;52.052;5.238;2023-06-26T05:00:27;10.70;;;3.58;;
68284;SDS011;55114;52.052;5.238;2023-06-26T05:02:54;9.30;;;3.45;;
68284;SDS011;55114;52.052;5.238;2023-06-26T05:05:27;15.38;;;3.67;;
68284;SDS011;55114;52.052;5.238;2023-06-26T05:07:55;8.20;;;3.15;;
68284;SDS011;55114;52.052;5.238;2023-06-26T05:10:22;8.87;;;2.90;;
68284;SDS011;55114;52.052;5.238;2023-06-26T05:12:49;10.77;;;3.30;;
68284;SDS011;55114;52.052;5.238;2023-06-26T05:15:17;7.53;;;3.00;;
68284;SDS011;55114;52.052;5.238;2023-06-26T05:17:44;10.13;;;3.45;;
68284;SDS011;55114;52.052;5.238;2023-06-26T05:20:11;10.13;;;3.03;;
68284;SDS011;55114;52.052;5.238;2023-06-26T05:22:39;8.00;;;3.20;;
68284;SDS011;55114;52.052;5.238;2023-06-26T05:25:07;7.68;;;3.08;;
68284;SDS011;55114;52.052;5.238;2023-06-26T05:27:36;8.07;;;3.15;;
68284;SDS011;55114;52.052;5.238;2023-06-26T05:30:03;7.68;;;2.85;;
68284;SDS011;55114;52.052;5.238;2023-06-26T05:32:31;6.97;;;2.80;;
68284;SDS011;55114;52.052;5.238;2023-06-26T05:35:02;7.30;;;2.63;;
68284;SDS011;55114;52.052;5.238;2023-06-26T05:37:33;6.15;;;2.78;;
68284;SDS011;55114;52.052;5.238;2023-06-26T05:40:00;10.18;;;3.95;;
68284;SDS011;55114;52.052;5.238;2023-06-26T05:42:30;7.28;;;3.20;;
68284;SDS011;55114;52.052;5.238;2023-06-26T05:44:57;8.70;;;3.15;;
68284;SDS011;55114;52.052;5.238;2023-06-26T05:47:24;7.07;;;2.67;;
68284;SDS011;55114;52.052;5.238;2023-06-26T05:49:52;7.30;;;3.28;;
68284;SDS011;55114;52.052;5.238;2023-06-26T05:52:19;7.65;;;3.08;;
68284;SDS011;55114;52.052;5.238;2023-06-26T05:54:46;5.80;;;2.90;;
68284;SDS011;55114;52.052;5.238;2023-06-26T05:57:13;7.68;;;3.15;;
68284;SDS011;55114;52.052;5.238;2023-06-26T05:59:42;7.43;;;2.63;;
68284;SDS011;55114;52.052;5.238;2023-06-26T06:02:11;9.48;;;2.95;;
68284;SDS011;55114;52.052;5.238;2023-06-26T06:04:38;5.50;;;2.50;;
68284;SDS011;55114;52.052;5.238;2023-06-26T06:07:05;6.10;;;2.80;;
68284;SDS011;55114;52.052;5.238;2023-06-26T06:09:33;6.75;;;2.90;;
68284;SDS011;55114;52.052;5.238;2023-06-26T06:12:00;5.83;;;2.67;;
68284;SDS011;55114;52.052;5.238;2023-06-26T06:14:27;8.38;;;3.03;;
68284;SDS011;55114;52.052;5.238;2023-06-26T06:16:54;7.35;;;2.88;;
68284;SDS011;55114;52.052;5.238;2023-06-26T06:19:22;12.75;;;3.15;;
68284;SDS011;55114;52.052;5.238;2023-06-26T06:21:49;5.45;;;2.53;;
68284;SDS011;55114;52.052;5.238;2023-06-26T06:24:16;6.00;;;2.97;;
68284;SDS011;55114;52.052;5.238;2023-06-26T06:26:44;6.03;;;3.17;;
68284;SDS011;55114;52.052;5.238;2023-06-26T06:29:11;8.13;;;3.00;;
68284;SDS011;55114;52.052;5.238;2023-06-26T06:31:38;7.93;;;3.17;;
68284;SDS011;55114;52.052;5.238;2023-06-26T06:34:06;5.97;;;2.92;;
68284;SDS011;55114;52.052;5.238;2023-06-26T06:36:33;8.87;;;2.80;;
68284;SDS011;55114;52.052;5.238;2023-06-26T06:39:01;7.20;;;2.40;;
68284;SDS011;55114;52.052;5.238;2023-06-26T06:41:29;9.68;;;2.70;;
68284;SDS011;55114;52.052;5.238;2023-06-26T06:43:56;4.68;;;2.30;;
68284;SDS011;55114;52.052;5.238;2023-06-26T06:46:23;6.80;;;2.78;;
68284;SDS011;55114;52.052;5.238;2023-06-26T06:48:53;5.57;;;3.00;;
68284;SDS011;55114;52.052;5.238;2023-06-26T06:51:20;6.07;;;2.47;;
68284;SDS011;55114;52.052;5.238;2023-06-26T06:53:47;7.22;;;3.15;;
68284;SDS011;55114;52.052;5.238;2023-06-26T06:56:14;12.43;;;3.00;;
68284;SDS011;55114;52.052;5.238;2023-06-26T06:58:41;6.35;;;2.75;;
68284;SDS011;55114;52.052;5.238;2023-06-26T07:01:13;5.83;;;2.70;;
68284;SDS011;55114;52.052;5.238;2023-06-26T07:03:40;9.20;;;3.17;;
68284;SDS011;55114;52.052;5.238;2023-06-26T07:06:08;6.22;;;2.63;;
68284;SDS011;55114;52.052;5.238;2023-06-26T07:08:35;7.03;;;3.13;;
68284;SDS011;55114;52.052;5.238;2023-06-26T07:11:02;6.28;;;3.38;;
68284;SDS011;55114;52.052;5.238;2023-06-26T07:13:29;8.90;;;3.10;;
68284;SDS011;55114;52.052;5.238;2023-06-26T07:15:56;9.40;;;2.80;;
68284;SDS011;55114;52.052;5.238;2023-06-26T07:18:24;8.75;;;3.40;;
68284;SDS011;55114;52.052;5.238;2023-06-26T07:20:51;7.70;;;3.10;;
68284;SDS011;55114;52.052;5.238;2023-06-26T07:23:18;7.95;;;2.85;;
68284;SDS011;55114;52.052;5.238;2023-06-26T07:25:45;7.40;;;3.00;;
68284;SDS011;55114;52.052;5.238;2023-06-26T07:28:13;7.25;;;2.53;;
68284;SDS011;55114;52.052;5.238;2023-06-26T07:30:40;7.90;;;2.92;;
68284;SDS011;55114;52.052;5.238;2023-06-26T07:33:07;4.70;;;2.35;;
68284;SDS011;55114;52.052;5.238;2023-06-26T07:35:35;5.82;;;2.72;;
68284;SDS011;55114;52.052;5.238;2023-06-26T07:38:02;6.23;;;2.70;;
68284;SDS011;55114;52.052;5.238;2023-06-26T07:40:29;6.22;;;2.90;;
68284;SDS011;55114;52.052;5.238;2023-06-26T07:42:56;7.70;;;3.00;;
68284;SDS011;55114;52.052;5.238;2023-06-26T07:45:24;7.82;;;2.72;;
68284;SDS011;55114;52.052;5.238;2023-06-26T07:47:52;5.45;;;2.72;;
68284;SDS011;55114;52.052;5.238;2023-06-26T07:50:20;6.47;;;2.63;;
68284;SDS011;55114;52.052;5.238;2023-06-26T07:52:49;7.65;;;2.85;;
68284;SDS011;55114;52.052;5.238;2023-06-26T07:55:16;6.22;;;2.90;;
68284;SDS011;55114;52.052;5.238;2023-06-26T07:57:43;7.18;;;2.97;;
68284;SDS011;55114;52.052;5.238;2023-06-26T08:00:12;5.60;;;2.72;;
68284;SDS011;55114;52.052;5.238;2023-06-26T08:02:39;7.33;;;2.57;;
68284;SDS011;55114;52.052;5.238;2023-06-26T08:05:06;7.45;;;2.38;;
68284;SDS011;55114;52.052;5.238;2023-06-26T08:07:34;14.95;;;2.67;;
68284;SDS011;55114;52.052;5.238;2023-06-26T08:10:01;6.68;;;2.28;;
68284;SDS011;55114;52.052;5.238;2023-06-26T08:12:29;6.25;;;2.13;;
68284;SDS011;55114;52.052;5.238;2023-06-26T08:14:56;7.47;;;2.27;;
68284;SDS011;55114;52.052;5.238;2023-06-26T08:17:24;5.45;;;2.15;;
68284;SDS011;55114;52.052;5.238;2023-06-26T08:19:55;7.80;;;2.25;;
68284;SDS011;55114;52.052;5.238;2023-06-26T08:22:23;4.78;;;2.13;;
68284;SDS011;55114;52.052;5.238;2023-06-26T08:24:50;7.70;;;2.05;;
68284;SDS011;55114;52.052;5.238;2023-06-26T08:27:17;7.10;;;2.43;;
68284;SDS011;55114;52.052;5.238;2023-06-26T08:29:44;5.40;;;2.20;;
68284;SDS011;55114;52.052;5.238;2023-06-26T08:32:12;7.05;;;2.30;;
68284;SDS011;55114;52.052;5.238;2023-06-26T08:34:39;5.50;;;2.17;;
68284;SDS011;55114;52.052;5.238;2023-06-26T08:37:06;7.07;;;2.22;;
68284;SDS011;55114;52.052;5.238;2023-06-26T08:39:35;11.53;;;2.50;;
68284;SDS011;55114;52.052;5.238;2023-06-26T08:42:02;6.22;;;2.22;;
68284;SDS011;55114;52.052;5.238;2023-06-26T08:44:29;5.95;;;2.17;;
68284;SDS011;55114;52.052;5.238;2023-06-26T08:46:58;4.13;;;2.00;;
68284;SDS011;55114;52.052;5.238;2023-06-26T08:49:28;6.55;;;2.20;;
68284;SDS011;55114;52.052;5.238;2023-06-26T08:51:57;5.47;;;2.33;;
68284;SDS011;55114;52.052;5.238;2023-06-26T08:54:27;5.63;;;2.20;;
68284;SDS011;55114;52.052;5.238;2023-06-26T08:56:56;7.45;;;2.70;;
68284;SDS011;55114;52.052;5.238;2023-06-26T08:59:24;4.32;;;1.98;;
68284;SDS011;55114;52.052;5.238;2023-06-26T09:01:51;6.13;;;2.22;;
68284;SDS011;55114;52.052;5.238;2023-06-26T09:04:18;4.37;;;2.20;;
68284;SDS011;55114;52.052;5.238;2023-06-26T09:06:46;5.80;;;2.15;;
68284;SDS011;55114;52.052;5.238;2023-06-26T09:09:13;5.10;;;2.08;;
68284;SDS011;55114;52.052;5.238;2023-06-26T09:11:40;6.47;;;1.90;;
68284;SDS011;55114;52.052;5.238;2023-06-26T09:14:08;5.18;;;2.20;;
68284;SDS011;55114;52.052;5.238;2023-06-26T09:16:39;5.90;;;2.30;;
68284;SDS011;55114;52.052;5.238;2023-06-26T09:19:11;7.22;;;2.45;;
68284;SDS011;55114;52.052;5.238;2023-06-26T09:21:39;5.47;;;2.10;;
68284;SDS011;55114;52.052;5.238;2023-06-26T09:24:07;5.35;;;2.30;;
68284;SDS011;55114;52.052;5.238;2023-06-26T09:26:35;6.13;;;2.38;;
68284;SDS011;55114;52.052;5.238;2023-06-26T09:29:03;5.10;;;2.17;;
68284;SDS011;55114;52.052;5.238;2023-06-26T09:31:30;6.90;;;2.10;;
68284;SDS011;55114;52.052;5.238;2023-06-26T09:34:07;7.43;;;2.30;;
68284;SDS011;55114;52.052;5.238;2023-06-26T09:36:34;5.78;;;2.35;;
68284;SDS011;55114;52.052;5.238;2023-06-26T09:39:06;6.82;;;2.47;;
68284;SDS011;55114;52.052;5.238;2023-06-26T09:41:37;5.10;;;2.10;;
68284;SDS011;55114;52.052;5.238;2023-06-26T09:44:05;6.63;;;2.47;;
68284;SDS011;55114;52.052;5.238;2023-06-26T09:46:34;5.18;;;2.05;;
68284;SDS011;55114;52.052;5.238;2023-06-26T09:49:02;4.88;;;1.95;;
68284;SDS011;55114;52.052;5.238;2023-06-26T09:51:34;9.00;;;2.17;;
68284;SDS011;55114;52.052;5.238;2023-06-26T09:54:02;5.10;;;2.20;;
68284;SDS011;55114;52.052;5.238;2023-06-26T09:56:30;4.35;;;2.00;;
68284;SDS011;55114;52.052;5.238;2023-06-26T09:58:58;6.05;;;1.85;;
68284;SDS011;55114;52.052;5.238;2023-06-26T10:01:25;4.15;;;2.00;;
68284;SDS011;55114;52.052;5.238;2023-06-26T10:03:53;5.03;;;2.10;;
68284;SDS011;55114;52.052;5.238;2023-06-26T10:09:09;9.38;;;2.15;;
68284;SDS011;55114;52.052;5.238;2023-06-26T10:11:39;7.63;;;1.85;;
68284;SDS011;55114;52.052;5.238;2023-06-26T10:14:07;7.15;;;2.28;;
68284;SDS011;55114;52.052;5.238;2023-06-26T10:16:44;5.15;;;1.90;;
68284;SDS011;55114;52.052;5.238;2023-06-26T10:19:11;4.07;;;1.90;;
68284;SDS011;55114;52.052;5.238;2023-06-26T10:21:40;3.92;;;2.20;;
68284;SDS011;55114;52.052;5.238;2023-06-26T10:24:08;3.88;;;1.83;;
68284;SDS011;55114;52.052;5.238;2023-06-26T10:26:38;4.32;;;2.00;;
68284;SDS011;55114;52.052;5.238;2023-06-26T10:29:09;3.97;;;2.08;;
68284;SDS011;55114;52.052;5.238;2023-06-26T10:31:37;4.70;;;1.90;;
68284;SDS011;55114;52.052;5.238;2023-06-26T10:34:05;3.75;;;1.75;;
68284;SDS011;55114;52.052;5.238;2023-06-26T10:36:33;4.10;;;1.95;;
68284;SDS011;55114;52.052;5.238;2023-06-26T10:39:06;5.63;;;1.90;;
68284;SDS011;55114;52.052;5.238;2023-06-26T10:41:40;6.20;;;2.17;;
68284;SDS011;55114;52.052;5.238;2023-06-26T10:44:29;4.40;;;1.97;;
68284;SDS011;55114;52.052;5.238;2023-06-26T10:47:08;4.82;;;2.38;;
68284;SDS011;55114;52.052;5.238;2023-06-26T10:49:36;3.60;;;1.95;;
68284;SDS011;55114;52.052;5.238;2023-06-26T10:52:03;5.80;;;1.90;;
68284;SDS011;55114;52.052;5.238;2023-06-26T10:54:31;3.38;;;2.28;;
68284;SDS011;55114;52.052;5.238;2023-06-26T10:57:02;4.60;;;2.07;;
68284;SDS011;55114;52.052;5.238;2023-06-26T10:59:30;4.68;;;1.98;;
68284;SDS011;55114;52.052;5.238;2023-06-26T11:02:00;4.80;;;2.55;;
68284;SDS011;55114;52.052;5.238;2023-06-26T11:04:51;4.15;;;2.05;;
68284;SDS011;55114;52.052;5.238;2023-06-26T11:07:23;7.10;;;2.42;;
68284;SDS011;55114;52.052;5.238;2023-06-26T11:09:54;4.47;;;2.43;;
68284;SDS011;55114;52.052;5.238;2023-06-26T11:15:12;4.05;;;1.67;;
68284;SDS011;55114;52.052;5.238;2023-06-26T11:17:40;5.57;;;2.30;;
68284;SDS011;55114;52.052;5.238;2023-06-26T11:20:11;4.15;;;2.05;;
68284;SDS011;55114;52.052;5.238;2023-06-26T11:22:40;4.00;;;1.90;;
68284;SDS011;55114;52.052;5.238;2023-06-26T11:25:09;4.03;;;2.10;;
68284;SDS011;55114;52.052;5.238;2023-06-26T11:27:40;5.35;;;2.08;;
68284;SDS011;55114;52.052;5.238;2023-06-26T11:30:09;4.32;;;2.17;;
68284;SDS011;55114;52.052;5.238;2023-06-26T11:32:37;3.92;;;2.00;;
68284;SDS011;55114;52.052;5.238;2023-06-26T11:35:04;2.80;;;1.73;;
68284;SDS011;55114;52.052;5.238;2023-06-26T11:37:32;4.55;;;2.03;;
68284;SDS011;55114;52.052;5.238;2023-06-26T11:40:15;5.30;;;1.98;;
68284;SDS011;55114;52.052;5.238;2023-06-26T11:42:42;3.65;;;1.95;;
68284;SDS011;55114;52.052;5.238;2023-06-26T11:45:11;19.92;;;2.35;;
68284;SDS011;55114;52.052;5.238;2023-06-26T11:47:38;4.13;;;1.73;;
68284;SDS011;55114;52.052;5.238;2023-06-26T11:50:06;3.88;;;2.00;;
68284;SDS011;55114;52.052;5.238;2023-06-26T11:52:33;3.67;;;1.67;;
68284;SDS011;55114;52.052;5.238;2023-06-26T11:55:01;4.20;;;1.63;;
68284;SDS011;55114;52.052;5.238;2023-06-26T11:57:28;4.28;;;1.70;;
68284;SDS011;55114;52.052;5.238;2023-06-26T11:59:57;3.60;;;1.77;;
68284;SDS011;55114;52.052;5.238;2023-06-26T12:02:24;3.47;;;1.60;;
68284;SDS011;55114;52.052;5.238;2023-06-26T12:04:51;2.97;;;1.75;;
68284;SDS011;55114;52.052;5.238;2023-06-26T12:07:18;5.15;;;1.85;;
68284;SDS011;55114;52.052;5.238;2023-06-26T12:09:46;3.60;;;1.67;;
68284;SDS011;55114;52.052;5.238;2023-06-26T12:12:15;4.97;;;1.70;;
68284;SDS011;55114;52.052;5.238;2023-06-26T12:14:43;5.10;;;1.45;;
68284;SDS011;55114;52.052;5.238;2023-06-26T12:17:11;3.92;;;1.33;;
68284;SDS011;55114;52.052;5.238;2023-06-26T12:19:46;2.95;;;1.33;;
68284;SDS011;55114;52.052;5.238;2023-06-26T12:22:17;4.00;;;1.77;;
68284;SDS011;55114;52.052;5.238;2023-06-26T12:24:45;5.90;;;2.30;;
68284;SDS011;55114;52.052;5.238;2023-06-26T12:27:13;3.90;;;1.50;;
68284;SDS011;55114;52.052;5.238;2023-06-26T12:29:45;5.30;;;1.73;;
68284;SDS011;55114;52.052;5.238;2023-06-26T12:32:13;4.70;;;1.30;;
68284;SDS011;55114;52.052;5.238;2023-06-26T12:34:41;4.18;;;1.50;;
68284;SDS011;55114;52.052;5.238;2023-06-26T12:37:09;6.03;;;1.40;;
68284;SDS011;55114;52.052;5.238;2023-06-26T12:39:53;4.57;;;1.60;;
68284;SDS011;55114;52.052;5.238;2023-06-26T12:42:24;3.25;;;1.80;;
68284;SDS011;55114;52.052;5.238;2023-06-26T12:44:52;2.97;;;1.48;;
68284;SDS011;55114;52.052;5.238;2023-06-26T12:47:27;2.95;;;1.40;;
68284;SDS011;55114;52.052;5.238;2023-06-26T12:49:56;4.77;;;1.70;;
68284;SDS011;55114;52.052;5.238;2023-06-26T12:52:24;5.53;;;1.83;;
68284;SDS011;55114;52.052;5.238;2023-06-26T12:54:52;5.25;;;1.48;;
68284;SDS011;55114;52.052;5.238;2023-06-26T12:57:19;3.72;;;1.40;;
68284;SDS011;55114;52.052;5.238;2023-06-26T12:59:47;8.15;;;2.13;;
68284;SDS011;55114;52.052;5.238;2023-06-26T13:02:14;2.63;;;1.40;;
68284;SDS011;55114;52.052;5.238;2023-06-26T13:04:41;4.05;;;1.60;;
68284;SDS011;55114;52.052;5.238;2023-06-26T13:07:10;4.85;;;1.40;;
68284;SDS011;55114;52.052;5.238;2023-06-26T13:09:38;3.58;;;1.60;;
68284;SDS011;55114;52.052;5.238;2023-06-26T13:12:07;5.57;;;1.83;;
68284;SDS011;55114;52.052;5.238;2023-06-26T13:14:35;3.70;;;1.50;;
68284;SDS011;55114;52.052;5.238;2023-06-26T13:17:02;4.38;;;2.08;;
68284;SDS011;55114;52.052;5.238;2023-06-26T13:19:33;2.88;;;1.52;;
68284;SDS011;55114;52.052;5.238;2023-06-26T13:22:00;3.70;;;1.67;;
68284;SDS011;55114;52.052;5.238;2023-06-26T13:24:27;4.25;;;1.80;;
68284;SDS011;55114;52.052;5.238;2023-06-26T13:26:54;4.70;;;1.90;;
68284;SDS011;55114;52.052;5.238;2023-06-26T13:29:21;4.65;;;1.95;;
68284;SDS011;55114;52.052;5.238;2023-06-26T13:31:49;3.60;;;1.92;;
68284;SDS011;55114;52.052;5.238;2023-06-26T13:34:19;3.83;;;1.52;;
68284;SDS011;55114;52.052;5.238;2023-06-26T13:36:48;5.50;;;1.80;;
68284;SDS011;55114;52.052;5.238;2023-06-26T13:39:15;3.27;;;1.40;;
68284;SDS011;55114;52.052;5.238;2023-06-26T13:41:42;3.40;;;1.45;;
68284;SDS011;55114;52.052;5.238;2023-06-26T13:44:09;4.97;;;1.85;;
68284;SDS011;55114;52.052;5.238;2023-06-26T13:46:56;3.50;;;1.50;;
68284;SDS011;55114;52.052;5.238;2023-06-26T13:49:24;3.97;;;2.05;;
68284;SDS011;55114;52.052;5.238;2023-06-26T13:51:51;3.40;;;1.40;;
68284;SDS011;55114;52.052;5.238;2023-06-26T13:54:18;2.97;;;1.50;;
68284;SDS011;55114;52.052;5.238;2023-06-26T13:56:45;5.03;;;1.60;;
68284;SDS011;55114;52.052;5.238;2023-06-26T13:59:13;3.00;;;1.40;;
68284;SDS011;55114;52.052;5.238;2023-06-26T14:01:41;4.25;;;1.65;;
68284;SDS011;55114;52.052;5.238;2023-06-26T14:04:11;4.10;;;1.40;;
68284;SDS011;55114;52.052;5.238;2023-06-26T14:06:38;3.78;;;1.75;;
68284;SDS011;55114;52.052;5.238;2023-06-26T14:09:05;10.80;;;1.83;;
68284;SDS011;55114;52.052;5.238;2023-06-26T14:11:33;3.13;;;1.50;;
68284;SDS011;55114;52.052;5.238;2023-06-26T14:14:00;4.50;;;1.70;;
68284;SDS011;55114;52.052;5.238;2023-06-26T14:16:27;3.50;;;1.70;;
68284;SDS011;55114;52.052;5.238;2023-06-26T14:18:56;6.13;;;1.70;;
68284;SDS011;55114;52.052;5.238;2023-06-26T14:21:23;3.65;;;1.90;;
68284;SDS011;55114;52.052;5.238;2023-06-26T14:23:50;4.45;;;1.70;;
68284;SDS011;55114;52.052;5.238;2023-06-26T14:26:17;4.65;;;1.60;;
68284;SDS011;55114;52.052;5.238;2023-06-26T14:28:44;4.17;;;1.77;;
68284;SDS011;55114;52.052;5.238;2023-06-26T14:31:12;3.33;;;1.63;;
68284;SDS011;55114;52.052;5.238;2023-06-26T14:33:39;4.05;;;2.00;;
68284;SDS011;55114;52.052;5.238;2023-06-26T14:36:06;10.55;;;2.30;;
68284;SDS011;55114;52.052;5.238;2023-06-26T14:38:33;3.13;;;1.42;;
68284;SDS011;55114;52.052;5.238;2023-06-26T14:41:01;4.60;;;1.37;;
68284;SDS011;55114;52.052;5.238;2023-06-26T14:43:28;3.03;;;1.50;;
68284;SDS011;55114;52.052;5.238;2023-06-26T14:45:56;4.03;;;1.63;;
68284;SDS011;55114;52.052;5.238;2023-06-26T14:48:24;2.55;;;1.35;;
68284;SDS011;55114;52.052;5.238;2023-06-26T14:50:54;3.63;;;1.52;;
68284;SDS011;55114;52.052;5.238;2023-06-26T14:53:22;3.20;;;1.23;;
68284;SDS011;55114;52.052;5.238;2023-06-26T14:55:49;3.10;;;1.40;;
68284;SDS011;55114;52.052;5.238;2023-06-26T14:58:16;6.10;;;1.80;;
68284;SDS011;55114;52.052;5.238;2023-06-26T15:00:43;3.40;;;1.60;;
68284;SDS011;55114;52.052;5.238;2023-06-26T15:03:10;3.28;;;1.65;;